ECO263 SLVR-SLCB
Flight info
| Callsign | ECO263 |
|---|---|
| Flight time | 0h 38m |
| Altitude | 24000 |
| Route | KOSBO UT712 PORKI |
| Aircraft | RJ85/M-SDFGIRWY/LB1 |
Departure
| Time | 2026-04-26 14:32 |
|---|---|
| Airport | Viru Viru International Airport (SLVR) |
Arrival
| Time | 2026-04-26 15:10 |
|---|---|
| Airport | Jorge Wilsterman International Airport (SLCB) |
| Time | Latitude | Longitude | Altitude | Speed | Heading |
|---|---|---|---|---|---|
| 2026-04-26 14:20 | -17.64653 | -63.14047 | 1232 ft | 0 kts | 236° |
| 2026-04-26 14:22 | -17.64651 | -63.14044 | 1232 ft | 2 kts | 236° |
| 2026-04-26 14:23 | -17.64646 | -63.14035 | 1232 ft | 2 kts | 235° |
| 2026-04-26 14:23 | -17.64636 | -63.14021 | 1232 ft | 2 kts | 233° |
| 2026-04-26 14:23 | -17.64626 | -63.14008 | 1232 ft | 2 kts | 228° |
| 2026-04-26 14:23 | -17.64614 | -63.13996 | 1232 ft | 2 kts | 217° |
| 2026-04-26 14:24 | -17.64601 | -63.13989 | 1232 ft | 2 kts | 188° |
| 2026-04-26 14:24 | -17.64588 | -63.13992 | 1232 ft | 2 kts | 148° |
| 2026-04-26 14:24 | -17.64587 | -63.13993 | 1232 ft | 0 kts | 147° |
| 2026-04-26 14:26 | -17.64588 | -63.13993 | 1232 ft | 0 kts | 147° |
| 2026-04-26 14:26 | -17.64604 | -63.13982 | 1232 ft | 7 kts | 147° |
| 2026-04-26 14:26 | -17.64648 | -63.13951 | 1232 ft | 7 kts | 146° |
| 2026-04-26 14:27 | -17.64674 | -63.13935 | 1232 ft | 4 kts | 150° |
| 2026-04-26 14:27 | -17.64700 | -63.13918 | 1232 ft | 5 kts | 145° |
| 2026-04-26 14:27 | -17.64740 | -63.13890 | 1232 ft | 9 kts | 147° |
| 2026-04-26 14:27 | -17.64798 | -63.13853 | 1232 ft | 9 kts | 145° |
| 2026-04-26 14:28 | -17.64855 | -63.13813 | 1232 ft | 11 kts | 147° |
| 2026-04-26 14:28 | -17.64878 | -63.13740 | 1232 ft | 12 kts | 49° |
| 2026-04-26 14:28 | -17.64830 | -63.13662 | 1232 ft | 14 kts | 57° |
| 2026-04-26 14:28 | -17.64790 | -63.13577 | 1232 ft | 11 kts | 105° |
| 2026-04-26 14:29 | -17.64854 | -63.13522 | 1232 ft | 13 kts | 146° |
| 2026-04-26 14:29 | -17.64938 | -63.13465 | 1232 ft | 14 kts | 147° |
| 2026-04-26 14:29 | -17.65022 | -63.13408 | 1232 ft | 14 kts | 147° |
| 2026-04-26 14:29 | -17.65113 | -63.13343 | 1232 ft | 17 kts | 144° |
| 2026-04-26 14:30 | -17.65166 | -63.13279 | 1232 ft | 10 kts | 74° |
| 2026-04-26 14:30 | -17.65134 | -63.13225 | 1232 ft | 8 kts | 55° |
| 2026-04-26 14:30 | -17.65103 | -63.13168 | 1232 ft | 10 kts | 61° |
| 2026-04-26 14:30 | -17.65060 | -63.13145 | 1232 ft | 7 kts | 326° |
| 2026-04-26 14:31 | -17.64997 | -63.13188 | 1232 ft | 22 kts | 327° |
| 2026-04-26 14:31 | -17.64690 | -63.13395 | 1232 ft | 83 kts | 327° |
| 2026-04-26 14:31 | -17.64042 | -63.13832 | 1238 ft | 135 kts | 327° |
| 2026-04-26 14:31 | -17.63220 | -63.14392 | 1737 ft | 140 kts | 327° |
| 2026-04-26 14:32 | -17.62422 | -63.14938 | 2491 ft | 137 kts | 327° |
| 2026-04-26 14:32 | -17.61809 | -63.15741 | 3019 ft | 150 kts | 295° |
| 2026-04-26 14:32 | -17.61668 | -63.16795 | 3847 ft | 142 kts | 272° |
| 2026-04-26 14:32 | -17.61778 | -63.17859 | 4401 ft | 154 kts | 269° |
| 2026-04-26 14:33 | -17.61926 | -63.19029 | 4854 ft | 170 kts | 268° |
| 2026-04-26 14:33 | -17.62076 | -63.20329 | 5296 ft | 188 kts | 269° |
| 2026-04-26 14:33 | -17.62221 | -63.21768 | 5739 ft | 208 kts | 270° |
| 2026-04-26 14:33 | -17.62356 | -63.23339 | 6264 ft | 224 kts | 270° |
| 2026-04-26 14:34 | -17.62477 | -63.25042 | 6709 ft | 244 kts | 271° |
| 2026-04-26 14:34 | -17.62584 | -63.26824 | 7502 ft | 245 kts | 271° |
| 2026-04-26 14:34 | -17.62679 | -63.28636 | 8176 ft | 251 kts | 272° |
| 2026-04-26 14:34 | -17.62755 | -63.30478 | 8928 ft | 254 kts | 272° |
| 2026-04-26 14:35 | -17.62825 | -63.32348 | 9667 ft | 257 kts | 272° |
| 2026-04-26 14:35 | -17.62891 | -63.34231 | 10368 ft | 260 kts | 272° |
| 2026-04-26 14:35 | -17.62957 | -63.36135 | 11068 ft | 262 kts | 272° |
| 2026-04-26 14:35 | -17.63022 | -63.38055 | 11735 ft | 265 kts | 272° |
| 2026-04-26 14:36 | -17.63083 | -63.40005 | 12348 ft | 269 kts | 272° |
| 2026-04-26 14:36 | -17.63137 | -63.41970 | 12949 ft | 271 kts | 272° |
| 2026-04-26 14:36 | -17.63181 | -63.43934 | 13518 ft | 274 kts | 272° |
| 2026-04-26 14:36 | -17.63217 | -63.45963 | 14085 ft | 277 kts | 272° |
| 2026-04-26 14:37 | -17.63243 | -63.47972 | 14622 ft | 280 kts | 272° |
| 2026-04-26 14:37 | -17.63264 | -63.50024 | 15148 ft | 283 kts | 272° |
| 2026-04-26 14:37 | -17.63295 | -63.52097 | 15668 ft | 285 kts | 271° |
| 2026-04-26 14:37 | -17.63327 | -63.54189 | 16147 ft | 288 kts | 271° |
| 2026-04-26 14:38 | -17.63355 | -63.56304 | 16614 ft | 291 kts | 271° |
| 2026-04-26 14:38 | -17.63375 | -63.58441 | 17067 ft | 294 kts | 271° |
| 2026-04-26 14:38 | -17.63402 | -63.60597 | 17516 ft | 297 kts | 271° |
| 2026-04-26 14:38 | -17.63436 | -63.62774 | 17938 ft | 301 kts | 271° |
| 2026-04-26 14:39 | -17.63469 | -63.64976 | 18375 ft | 304 kts | 270° |
| 2026-04-26 14:39 | -17.63498 | -63.67202 | 18766 ft | 307 kts | 270° |
| 2026-04-26 14:39 | -17.63526 | -63.69420 | 19152 ft | 310 kts | 270° |
| 2026-04-26 14:39 | -17.63568 | -63.71691 | 19528 ft | 312 kts | 270° |
| 2026-04-26 14:40 | -17.63613 | -63.73976 | 19893 ft | 315 kts | 270° |
| 2026-04-26 14:40 | -17.63657 | -63.76278 | 20249 ft | 317 kts | 270° |
| 2026-04-26 14:40 | -17.63697 | -63.78600 | 20600 ft | 319 kts | 270° |
| 2026-04-26 14:40 | -17.63736 | -63.80935 | 20918 ft | 322 kts | 270° |
| 2026-04-26 14:41 | -17.63775 | -63.83293 | 21233 ft | 325 kts | 269° |
| 2026-04-26 14:41 | -17.63831 | -63.85696 | 21571 ft | 327 kts | 269° |
| 2026-04-26 14:41 | -17.63896 | -63.88055 | 21916 ft | 328 kts | 269° |
| 2026-04-26 14:41 | -17.63965 | -63.90482 | 22229 ft | 330 kts | 269° |
| 2026-04-26 14:42 | -17.64034 | -63.92868 | 22522 ft | 332 kts | 269° |
| 2026-04-26 14:42 | -17.64106 | -63.95324 | 22826 ft | 334 kts | 269° |
| 2026-04-26 14:42 | -17.64176 | -63.97760 | 23119 ft | 335 kts | 269° |
| 2026-04-26 14:42 | -17.64239 | -64.00165 | 23413 ft | 336 kts | 269° |
| 2026-04-26 14:43 | -17.64299 | -64.02656 | 23669 ft | 338 kts | 269° |
| 2026-04-26 14:43 | -17.64364 | -64.05129 | 23847 ft | 340 kts | 269° |
| 2026-04-26 14:43 | -17.64430 | -64.07612 | 23959 ft | 341 kts | 269° |
| 2026-04-26 14:43 | -17.64496 | -64.10066 | 23999 ft | 330 kts | 269° |
| 2026-04-26 14:44 | -17.64561 | -64.12409 | 24003 ft | 316 kts | 269° |
| 2026-04-26 14:44 | -17.64623 | -64.14768 | 24009 ft | 332 kts | 269° |
| 2026-04-26 14:44 | -17.64681 | -64.17224 | 24013 ft | 350 kts | 269° |
| 2026-04-26 14:44 | -17.64746 | -64.19879 | 24014 ft | 367 kts | 269° |
| 2026-04-26 14:45 | -17.64812 | -64.22608 | 24013 ft | 383 kts | 269° |
| 2026-04-26 14:45 | -17.64857 | -64.24482 | 24013 ft | 392 kts | 269° |
| 2026-04-26 14:45 | -17.64948 | -64.28370 | 24011 ft | 405 kts | 269° |
| 2026-04-26 14:45 | -17.65016 | -64.31345 | 24010 ft | 410 kts | 269° |
| 2026-04-26 14:46 | -17.65083 | -64.34349 | 24008 ft | 412 kts | 269° |
| 2026-04-26 14:46 | -17.65149 | -64.37355 | 24007 ft | 412 kts | 269° |
| 2026-04-26 14:46 | -17.65214 | -64.40356 | 24007 ft | 412 kts | 269° |
| 2026-04-26 14:46 | -17.65277 | -64.43316 | 24007 ft | 411 kts | 269° |
| 2026-04-26 14:47 | -17.65340 | -64.46347 | 24007 ft | 411 kts | 269° |
| 2026-04-26 14:47 | -17.65401 | -64.49339 | 24007 ft | 410 kts | 269° |
| 2026-04-26 14:47 | -17.65460 | -64.52292 | 24007 ft | 410 kts | 269° |
| 2026-04-26 14:47 | -17.65519 | -64.55317 | 24007 ft | 410 kts | 269° |
| 2026-04-26 14:48 | -17.65576 | -64.58305 | 24006 ft | 410 kts | 269° |
| 2026-04-26 14:48 | -17.65632 | -64.61257 | 24006 ft | 410 kts | 269° |
| 2026-04-26 14:48 | -17.65686 | -64.64244 | 24006 ft | 409 kts | 269° |
| 2026-04-26 14:48 | -17.65740 | -64.67226 | 24005 ft | 409 kts | 269° |
| 2026-04-26 14:49 | -17.65792 | -64.70209 | 24016 ft | 409 kts | 269° |
| 2026-04-26 14:49 | -17.65843 | -64.73230 | 24058 ft | 410 kts | 270° |
| 2026-04-26 14:49 | -17.65893 | -64.76217 | 24085 ft | 411 kts | 270° |
| 2026-04-26 14:49 | -17.65942 | -64.79222 | 24097 ft | 412 kts | 270° |
| 2026-04-26 14:50 | -17.65991 | -64.82230 | 24100 ft | 413 kts | 270° |
| 2026-04-26 14:50 | -17.66039 | -64.85238 | 24099 ft | 413 kts | 270° |
| 2026-04-26 14:50 | -17.66086 | -64.88250 | 24097 ft | 413 kts | 270° |
| 2026-04-26 14:50 | -17.66131 | -64.91229 | 24095 ft | 413 kts | 270° |
| 2026-04-26 14:51 | -17.66184 | -64.94283 | 24106 ft | 414 kts | 269° |
| 2026-04-26 14:51 | -17.66237 | -64.97299 | 24129 ft | 414 kts | 269° |
| 2026-04-26 14:51 | -17.66294 | -65.00288 | 24141 ft | 415 kts | 269° |
| 2026-04-26 14:51 | -17.66345 | -65.03363 | 24146 ft | 416 kts | 270° |
| 2026-04-26 14:52 | -17.66397 | -65.06403 | 24146 ft | 417 kts | 270° |
| 2026-04-26 14:52 | -17.66442 | -65.09446 | 24144 ft | 417 kts | 270° |
| 2026-04-26 14:52 | -17.66501 | -65.12489 | 24142 ft | 417 kts | 269° |
| 2026-04-26 14:52 | -17.66556 | -65.15499 | 24140 ft | 417 kts | 270° |
| 2026-04-26 14:53 | -17.66600 | -65.18537 | 24159 ft | 417 kts | 270° |
| 2026-04-26 14:53 | -17.66647 | -65.21578 | 24187 ft | 418 kts | 269° |
| 2026-04-26 14:53 | -17.66710 | -65.24643 | 24202 ft | 420 kts | 269° |
| 2026-04-26 14:53 | -17.66782 | -65.27709 | 24206 ft | 421 kts | 269° |
| 2026-04-26 14:54 | -17.66858 | -65.30783 | 24204 ft | 422 kts | 269° |
| 2026-04-26 14:54 | -17.66931 | -65.33854 | 24205 ft | 422 kts | 269° |
| 2026-04-26 14:54 | -17.66990 | -65.36899 | 24207 ft | 406 kts | 270° |
| 2026-04-26 14:54 | -17.67038 | -65.39770 | 24212 ft | 383 kts | 269° |
| 2026-04-26 14:55 | -17.67097 | -65.42551 | 24243 ft | 380 kts | 269° |
| 2026-04-26 14:55 | -17.67156 | -65.45335 | 24285 ft | 381 kts | 269° |
| 2026-04-26 14:55 | -17.67211 | -65.48017 | 24147 ft | 366 kts | 269° |
| 2026-04-26 14:55 | -17.67260 | -65.50663 | 23722 ft | 358 kts | 270° |
| 2026-04-26 14:56 | -17.67311 | -65.53255 | 23111 ft | 354 kts | 269° |
| 2026-04-26 14:56 | -17.67363 | -65.55833 | 22363 ft | 354 kts | 270° |
| 2026-04-26 14:56 | -17.67414 | -65.58445 | 21434 ft | 365 kts | 269° |
| 2026-04-26 14:56 | -17.67461 | -65.61109 | 20799 ft | 364 kts | 269° |
| 2026-04-26 14:57 | -17.67511 | -65.63776 | 20403 ft | 358 kts | 269° |
| 2026-04-26 14:57 | -17.67563 | -65.66379 | 20047 ft | 356 kts | 269° |
| 2026-04-26 14:57 | -17.67615 | -65.68979 | 19696 ft | 357 kts | 269° |
| 2026-04-26 14:57 | -17.67664 | -65.71582 | 19346 ft | 357 kts | 270° |
| 2026-04-26 14:58 | -17.67711 | -65.74183 | 18971 ft | 355 kts | 269° |
| 2026-04-26 14:58 | -17.67760 | -65.76751 | 18524 ft | 350 kts | 269° |
| 2026-04-26 14:58 | -17.67793 | -65.78427 | 18229 ft | 346 kts | 269° |
| 2026-04-26 14:58 | -17.67839 | -65.80928 | 17778 ft | 340 kts | 269° |
| 2026-04-26 14:59 | -17.67870 | -65.83390 | 17326 ft | 335 kts | 271° |
| 2026-04-26 14:59 | -17.67518 | -65.85785 | 16872 ft | 330 kts | 286° |
| 2026-04-26 14:59 | -17.66689 | -65.88008 | 16423 ft | 326 kts | 296° |
| 2026-04-26 14:59 | -17.65957 | -65.89404 | 16121 ft | 323 kts | 301° |
| 2026-04-26 15:00 | -17.64280 | -65.91962 | 15526 ft | 319 kts | 308° |
| 2026-04-26 15:00 | -17.62898 | -65.93776 | 15075 ft | 317 kts | 310° |
| 2026-04-26 15:00 | -17.61472 | -65.95518 | 14703 ft | 314 kts | 312° |
| 2026-04-26 15:00 | -17.60016 | -65.97227 | 14314 ft | 312 kts | 312° |
| 2026-04-26 15:01 | -17.58571 | -65.98903 | 13914 ft | 309 kts | 313° |
| 2026-04-26 15:01 | -17.57131 | -66.00563 | 13512 ft | 307 kts | 313° |
| 2026-04-26 15:01 | -17.55681 | -66.02232 | 13142 ft | 304 kts | 313° |
| 2026-04-26 15:01 | -17.54261 | -66.03859 | 12817 ft | 301 kts | 313° |
| 2026-04-26 15:02 | -17.52843 | -66.05457 | 12537 ft | 299 kts | 313° |
| 2026-04-26 15:02 | -17.51430 | -66.07060 | 12261 ft | 298 kts | 313° |
| 2026-04-26 15:02 | -17.50033 | -66.08657 | 11990 ft | 297 kts | 313° |
| 2026-04-26 15:02 | -17.48639 | -66.10253 | 11785 ft | 295 kts | 313° |
| 2026-04-26 15:03 | -17.47258 | -66.11835 | 11585 ft | 294 kts | 313° |
| 2026-04-26 15:03 | -17.45900 | -66.13390 | 11379 ft | 282 kts | 313° |
| 2026-04-26 15:03 | -17.44604 | -66.14872 | 11150 ft | 271 kts | 313° |
| 2026-04-26 15:03 | -17.43349 | -66.16305 | 10919 ft | 262 kts | 313° |
| 2026-04-26 15:04 | -17.42142 | -66.17677 | 10727 ft | 251 kts | 313° |
| 2026-04-26 15:04 | -17.40985 | -66.18989 | 10534 ft | 239 kts | 313° |
| 2026-04-26 15:04 | -17.39896 | -66.20220 | 10304 ft | 229 kts | 313° |
| 2026-04-26 15:04 | -17.38818 | -66.21433 | 10122 ft | 219 kts | 313° |
| 2026-04-26 15:05 | -17.37821 | -66.22550 | 10018 ft | 206 kts | 313° |
| 2026-04-26 15:05 | -17.37075 | -66.23153 | 9966 ft | 197 kts | 334° |
| 2026-04-26 15:05 | -17.35409 | -66.23177 | 9976 ft | 174 kts | 25° |
| 2026-04-26 15:05 | -17.34610 | -66.22316 | 9995 ft | 165 kts | 65° |
| 2026-04-26 15:06 | -17.34351 | -66.21158 | 10034 ft | 167 kts | 82° |
| 2026-04-26 15:06 | -17.34246 | -66.19954 | 10006 ft | 170 kts | 87° |
| 2026-04-26 15:06 | -17.34341 | -66.18712 | 9988 ft | 172 kts | 98° |
| 2026-04-26 15:06 | -17.34652 | -66.17504 | 9995 ft | 172 kts | 108° |
| 2026-04-26 15:07 | -17.35613 | -66.15229 | 10013 ft | 169 kts | 129° |
| 2026-04-26 15:07 | -17.36537 | -66.14500 | 9941 ft | 166 kts | 157° |
| 2026-04-26 15:07 | -17.37628 | -66.14305 | 9823 ft | 158 kts | 188° |
| 2026-04-26 15:08 | -17.38570 | -66.14907 | 9561 ft | 163 kts | 216° |
| 2026-04-26 15:08 | -17.39402 | -66.15659 | 9243 ft | 155 kts | 211° |
| 2026-04-26 15:08 | -17.40235 | -66.16365 | 8837 ft | 148 kts | 202° |
| 2026-04-26 15:08 | -17.40401 | -66.16480 | 8758 ft | 147 kts | 200° |
| 2026-04-26 15:09 | -17.41192 | -66.16978 | 8406 ft | 128 kts | 212° |
| 2026-04-26 15:09 | -17.41826 | -66.17473 | 8406 ft | 99 kts | 220° |
| 2026-04-26 15:09 | -17.42310 | -66.17874 | 8406 ft | 81 kts | 217° |
| 2026-04-26 15:10 | -17.42638 | -66.18136 | 8406 ft | 40 kts | 217° |
| 2026-04-26 15:10 | -17.42752 | -66.18226 | 8406 ft | 28 kts | 216° |
| 2026-04-26 15:10 | -17.42890 | -66.18324 | 8406 ft | 7 kts | 275° |
| 2026-04-26 15:10 | -17.42869 | -66.18325 | 8406 ft | 3 kts | 44° |
| 2026-04-26 15:11 | -17.42850 | -66.18307 | 8406 ft | 5 kts | 40° |
| 2026-04-26 15:11 | -17.42817 | -66.18278 | 8406 ft | 7 kts | 38° |
| 2026-04-26 15:11 | -17.42770 | -66.18241 | 8406 ft | 10 kts | 38° |
| 2026-04-26 15:11 | -17.42713 | -66.18193 | 8406 ft | 12 kts | 38° |
| 2026-04-26 15:12 | -17.42643 | -66.18138 | 8406 ft | 13 kts | 37° |
| 2026-04-26 15:12 | -17.42563 | -66.18076 | 8406 ft | 15 kts | 37° |
| 2026-04-26 15:12 | -17.42474 | -66.18005 | 8406 ft | 17 kts | 37° |
| 2026-04-26 15:12 | -17.42384 | -66.17934 | 8406 ft | 15 kts | 37° |
| 2026-04-26 15:13 | -17.42325 | -66.17887 | 8406 ft | 9 kts | 39° |
| 2026-04-26 15:13 | -17.42281 | -66.17850 | 8406 ft | 8 kts | 37° |
| 2026-04-26 15:13 | -17.42234 | -66.17812 | 8406 ft | 9 kts | 38° |
| 2026-04-26 15:13 | -17.42182 | -66.17772 | 8406 ft | 10 kts | 37° |
| 2026-04-26 15:14 | -17.42156 | -66.17751 | 8406 ft | 3 kts | 38° |
| 2026-04-26 15:14 | -17.42136 | -66.17734 | 8406 ft | 4 kts | 40° |
| 2026-04-26 15:14 | -17.42111 | -66.17721 | 8406 ft | 4 kts | 353° |
| 2026-04-26 15:14 | -17.42088 | -66.17739 | 8406 ft | 5 kts | 313° |
| 2026-04-26 15:15 | -17.42038 | -66.17798 | 8406 ft | 16 kts | 311° |
| 2026-04-26 15:15 | -17.41946 | -66.17906 | 8406 ft | 19 kts | 312° |
| 2026-04-26 15:15 | -17.41876 | -66.17985 | 8406 ft | 13 kts | 313° |
| 2026-04-26 15:15 | -17.41815 | -66.17989 | 8406 ft | 8 kts | 18° |
| 2026-04-26 15:16 | -17.41769 | -66.17972 | 8406 ft | 5 kts | 20° |
| 2026-04-26 15:16 | -17.41763 | -66.17970 | 8406 ft | 0 kts | 20° |
| 2026-04-26 15:17 | -17.41750 | -66.17964 | 8406 ft | 4 kts | 21° |
| 2026-04-26 15:17 | -17.41726 | -66.17954 | 8406 ft | 7 kts | 21° |
| 2026-04-26 15:17 | -17.41647 | -66.17922 | 8406 ft | 11 kts | 20° |
| 2026-04-26 15:17 | -17.41589 | -66.17929 | 8406 ft | 9 kts | 314° |
| 2026-04-26 15:18 | -17.41546 | -66.17978 | 8406 ft | 10 kts | 312° |
| 2026-04-26 15:18 | -17.41509 | -66.17971 | 8406 ft | 6 kts | 41° |
| 2026-04-26 15:18 | -17.41484 | -66.17948 | 8406 ft | 2 kts | 41° |
| 2026-04-26 15:18 | -17.41483 | -66.17947 | 8406 ft | 0 kts | 41° |